createdAt,value
2023-02-04T00:03:30.869Z,4.81
2023-02-04T00:08:51.970Z,4.73
2023-02-04T00:14:12.997Z,4.66
2023-02-04T00:19:34.262Z,4.51
2023-02-04T00:24:55.213Z,4.48
2023-02-04T00:30:16.008Z,4.48
2023-02-04T00:35:39.760Z,4.54
2023-02-04T00:41:00.596Z,4.56
2023-02-04T00:46:21.382Z,4.44
2023-02-04T00:51:44.791Z,4.31
2023-02-04T00:57:05.695Z,4.34
2023-02-04T01:02:26.576Z,4.38
2023-02-04T01:07:47.336Z,4.52
2023-02-04T01:13:10.016Z,4.57
2023-02-04T01:18:30.958Z,4.74
2023-02-04T01:23:52.023Z,4.80
2023-02-04T01:29:13.470Z,4.80
2023-02-04T01:34:34.346Z,4.74
2023-02-04T01:39:55.048Z,4.45
2023-02-04T01:45:15.718Z,4.20
2023-02-04T01:50:36.684Z,3.94
2023-02-04T01:55:57.436Z,3.67
2023-02-04T02:01:44.245Z,3.68
2023-02-04T02:07:05.744Z,3.52
2023-02-04T02:12:26.810Z,3.33
2023-02-04T02:17:47.566Z,3.39
2023-02-04T02:23:11.343Z,3.36
2023-02-04T02:28:32.075Z,3.02
2023-02-04T02:33:52.816Z,2.88
2023-02-04T02:39:13.406Z,2.71
2023-02-04T02:44:34.267Z,2.48
2023-02-04T02:49:55.081Z,2.32
2023-02-04T02:55:18.080Z,2.21
2023-02-04T03:00:39.099Z,2.14
2023-02-04T03:06:02.517Z,2.06
2023-02-04T03:11:23.820Z,1.98
2023-02-04T03:16:45.245Z,1.94
2023-02-04T03:22:06.442Z,2.22
2023-02-04T03:27:27.125Z,2.38
2023-02-04T03:32:47.918Z,2.18
2023-02-04T03:38:08.719Z,1.91
2023-02-04T03:43:29.357Z,1.78
2023-02-04T03:48:50.133Z,1.66
2023-02-04T03:54:10.924Z,1.61
2023-02-04T03:59:31.706Z,1.70
2023-02-04T04:04:52.465Z,1.92
2023-02-04T04:10:13.261Z,2.10
2023-02-04T04:15:34.039Z,2.16
2023-02-04T04:20:54.903Z,2.15
2023-02-04T04:26:15.627Z,2.19
2023-02-04T04:31:36.659Z,2.16
2023-02-04T04:36:57.207Z,2.16
2023-02-04T04:42:18.018Z,2.08
2023-02-04T04:47:38.739Z,2.05
2023-02-04T04:52:59.515Z,2.00
2023-02-04T04:58:20.129Z,1.96
2023-02-04T05:03:40.888Z,1.95
2023-02-04T05:09:01.862Z,2.03
2023-02-04T05:14:22.792Z,2.06
2023-02-04T05:19:43.430Z,2.06
2023-02-04T05:25:04.189Z,2.11
2023-02-04T05:30:25.080Z,2.10
2023-02-04T05:35:45.807Z,2.08
2023-02-04T05:41:06.653Z,1.89
2023-02-04T05:46:27.586Z,1.59
2023-02-04T05:51:48.813Z,1.57
2023-02-04T05:57:09.377Z,1.67
2023-02-04T06:02:30.595Z,1.81
2023-02-04T06:07:51.469Z,1.85
2023-02-04T06:13:12.166Z,1.89
2023-02-04T06:18:32.921Z,1.88
2023-02-04T06:23:53.582Z,1.94
2023-02-04T06:29:14.243Z,2.04
2023-02-04T06:34:34.791Z,2.05
2023-02-04T06:39:57.519Z,2.09
2023-02-04T06:45:18.526Z,2.09
2023-02-04T06:50:39.385Z,2.11
2023-02-04T06:56:00.083Z,2.05
2023-02-04T07:01:20.929Z,1.97
2023-02-04T07:06:41.650Z,2.11
2023-02-04T07:12:02.510Z,2.18
2023-02-04T07:17:23.297Z,2.24
2023-02-04T07:22:44.606Z,2.44
2023-02-04T07:28:05.900Z,3.36
2023-02-04T07:33:26.714Z,3.80
2023-02-04T07:38:47.483Z,4.94
2023-02-04T07:44:08.077Z,4.95
2023-02-04T07:49:29.082Z,4.29
2023-02-04T07:54:50.240Z,3.70
2023-02-04T08:00:14.162Z,3.27
2023-02-04T08:05:35.263Z,3.04
2023-02-04T08:10:57.647Z,2.86
2023-02-04T08:16:19.407Z,3.00
2023-02-04T08:21:40.016Z,2.91
2023-02-04T08:27:00.675Z,3.13
2023-02-04T08:32:21.582Z,3.27
2023-02-04T08:37:42.289Z,3.08
2023-02-04T08:43:03.593Z,3.83
2023-02-04T08:48:24.325Z,4.45
2023-02-04T08:53:45.190Z,4.44
2023-02-04T08:59:06.022Z,4.15
2023-02-04T09:04:28.591Z,4.17
2023-02-04T09:09:49.500Z,4.54
2023-02-04T09:15:11.085Z,9.34
2023-02-04T09:20:32.431Z,9.93
2023-02-04T09:25:53.384Z,18.01
2023-02-04T09:31:14.867Z,13.87
2023-02-04T09:36:38.066Z,10.34
2023-02-04T09:41:58.839Z,9.40
2023-02-04T09:47:21.690Z,10.19
2023-02-04T09:52:43.299Z,10.73
2023-02-04T09:58:12.988Z,16.10
2023-02-04T10:03:35.484Z,16.11
2023-02-04T10:08:56.453Z,11.92
2023-02-04T10:14:19.727Z,9.19
2023-02-04T10:19:40.550Z,7.50
2023-02-04T10:25:01.474Z,6.85
2023-02-04T10:30:26.355Z,6.19
2023-02-04T10:35:48.425Z,5.54
2023-02-04T10:41:13.285Z,8.97
2023-02-04T10:46:34.259Z,8.31
2023-02-04T10:51:55.959Z,7.04
2023-02-04T10:57:26.579Z,6.83
2023-02-04T11:03:02.032Z,7.27
2023-02-04T11:08:29.194Z,7.85
2023-02-04T11:13:51.059Z,6.73
2023-02-04T11:19:12.920Z,5.84
2023-02-04T11:24:34.331Z,5.35
2023-02-04T11:30:05.437Z,5.41
2023-02-04T11:35:28.675Z,5.41
2023-02-04T11:40:55.881Z,5.47
2023-02-04T11:46:17.573Z,5.97
2023-02-04T11:51:38.658Z,6.13
2023-02-04T11:56:59.876Z,5.89
2023-02-04T12:02:26.093Z,6.00
2023-02-04T12:07:47.716Z,6.55
2023-02-04T12:13:18.197Z,6.56
2023-02-04T12:18:39.594Z,6.03
2023-02-04T12:24:00.809Z,5.97
2023-02-04T12:29:21.698Z,5.79
2023-02-04T12:34:42.277Z,5.98
2023-02-04T12:40:03.923Z,5.70
2023-02-04T12:45:24.981Z,5.37
2023-02-04T12:50:46.768Z,5.35
2023-02-04T12:56:07.535Z,5.54
2023-02-04T13:01:28.345Z,5.53
2023-02-04T13:06:49.017Z,5.28
2023-02-04T13:12:09.754Z,5.42
2023-02-04T13:17:30.379Z,5.11
2023-02-04T13:22:51.060Z,5.20
2023-02-04T13:28:12.001Z,4.73
2023-02-04T13:33:33.100Z,4.66
2023-02-04T13:38:53.987Z,5.06
2023-02-04T13:44:14.757Z,5.13
2023-02-04T13:49:35.641Z,4.90
2023-02-04T13:54:56.656Z,5.27
2023-02-04T14:00:18.871Z,5.74
2023-02-04T14:05:39.806Z,5.89
2023-02-04T14:11:00.700Z,5.71
2023-02-04T14:16:21.474Z,5.74
2023-02-04T14:21:42.207Z,5.41
2023-02-04T14:27:07.329Z,5.25
2023-02-04T14:32:28.204Z,5.74
2023-02-04T14:37:49.152Z,5.70
2023-02-04T14:43:12.654Z,5.65
2023-02-04T14:48:34.351Z,5.77
2023-02-04T14:53:55.450Z,5.52
2023-02-04T14:59:16.344Z,5.31
2023-02-04T15:04:37.564Z,5.45
2023-02-04T15:09:58.723Z,5.35
2023-02-04T15:15:19.478Z,5.36
2023-02-04T15:20:40.177Z,4.94
2023-02-04T15:26:01.091Z,4.48
2023-02-04T15:31:23.031Z,4.03
2023-02-04T15:36:43.613Z,3.61
2023-02-04T15:42:04.591Z,3.29
2023-02-04T15:47:25.310Z,3.01
2023-02-04T15:52:46.543Z,2.80
2023-02-04T15:58:07.474Z,2.74
2023-02-04T16:03:28.212Z,2.77
2023-02-04T16:08:48.981Z,2.70
2023-02-04T16:14:09.902Z,2.60
2023-02-04T16:19:30.660Z,2.53
2023-02-04T16:24:52.929Z,2.63
2023-02-04T16:30:14.881Z,2.64
2023-02-04T16:36:02.009Z,2.37
2023-02-04T16:41:23.354Z,2.11
2023-02-04T16:46:44.780Z,1.94
2023-02-04T16:52:05.828Z,1.82
2023-02-04T16:57:26.792Z,1.93
2023-02-04T17:02:48.018Z,2.04
2023-02-04T17:08:09.214Z,2.07
2023-02-04T17:13:30.062Z,1.95
2023-02-04T17:18:50.806Z,1.79
2023-02-04T17:24:11.558Z,1.64
2023-02-04T17:29:33.117Z,1.46
2023-02-04T17:34:55.276Z,1.30
2023-02-04T17:40:16.237Z,1.40
2023-02-04T17:45:37.906Z,1.41
2023-02-04T17:50:59.318Z,1.35
2023-02-04T17:56:21.498Z,1.41
2023-02-04T18:01:42.910Z,1.51
2023-02-04T18:07:08.260Z,1.62
2023-02-04T18:12:28.898Z,1.68
2023-02-04T18:17:49.905Z,1.54
2023-02-04T18:23:15.979Z,1.41
2023-02-04T18:28:39.572Z,1.23
2023-02-04T18:34:01.840Z,1.12
2023-02-04T18:39:30.856Z,1.12
2023-02-04T18:44:52.625Z,1.20
2023-02-04T18:50:29.721Z,1.30
2023-02-04T18:55:52.266Z,1.29
2023-02-04T19:01:13.132Z,1.33
2023-02-04T19:06:38.865Z,1.37
2023-02-04T19:12:00.905Z,1.36
2023-02-04T19:17:26.696Z,1.37
2023-02-04T19:22:50.790Z,1.31
2023-02-04T19:28:33.961Z,1.17
2023-02-04T19:33:55.472Z,1.10
2023-02-04T19:39:29.421Z,1.06
2023-02-04T19:44:50.696Z,1.01
2023-02-04T19:50:26.708Z,0.89
2023-02-04T19:55:49.788Z,0.78
2023-02-04T20:01:18.050Z,0.83
2023-02-04T20:06:38.912Z,1.03
2023-02-04T20:12:06.805Z,1.17
2023-02-04T20:17:39.147Z,1.36
2023-02-04T20:23:01.129Z,1.47
2023-02-04T20:28:30.201Z,1.56
2023-02-04T20:33:56.222Z,1.55
2023-02-04T20:39:49.739Z,1.58
2023-02-04T20:45:32.829Z,1.63
2023-02-04T20:50:55.319Z,1.58
2023-02-04T20:56:25.339Z,1.56
2023-02-04T21:01:48.588Z,1.61
2023-02-04T21:07:19.830Z,1.55
2023-02-04T21:12:42.954Z,1.56
2023-02-04T21:18:04.208Z,1.51
2023-02-04T21:23:25.207Z,1.55
2023-02-04T21:28:46.017Z,1.53
2023-02-04T21:34:06.936Z,1.52
2023-02-04T21:39:27.793Z,1.51
2023-02-04T21:44:48.922Z,1.52
2023-02-04T21:50:10.014Z,1.48
2023-02-04T21:55:31.147Z,1.42
2023-02-04T22:00:52.152Z,1.36
2023-02-04T22:06:15.119Z,1.32
2023-02-04T22:11:35.988Z,1.36
2023-02-04T22:16:56.911Z,1.38
2023-02-04T22:22:18.131Z,1.41
2023-02-04T22:27:39.009Z,1.41
2023-02-04T22:33:02.318Z,1.33
2023-02-04T22:38:25.590Z,1.33
2023-02-04T22:43:50.989Z,1.24
2023-02-04T22:49:11.900Z,1.13
2023-02-04T22:54:32.608Z,1.11
2023-02-04T22:59:53.742Z,1.12
2023-02-04T23:05:14.693Z,1.11
2023-02-04T23:10:36.749Z,0.93
2023-02-04T23:15:58.605Z,0.87
2023-02-04T23:21:20.974Z,0.81
2023-02-04T23:26:41.939Z,0.77
2023-02-04T23:32:02.619Z,0.59
2023-02-04T23:37:23.410Z,0.44
2023-02-04T23:42:44.047Z,0.28
2023-02-04T23:48:05.390Z,0.19
2023-02-04T23:53:26.368Z,0.18
2023-02-04T23:58:48.167Z,0.11
